Airfield :
LOGIN :

Register | Disclaimer

   EN    FR    IT 

 










Legend :    VFR   Marginal VFR   IFR   Intensive IFR   Very Intensive IFR
Visi :
Ceiling :
>= 8 km
>= 3000ft
5 to 8 km
1000 to 3000 ft
1500m to 5 km
500 to 1000 ft
800 to 1500m
200 to 500 ft
< 800m
< 200 ft
Symbols :   Thunderstorms  Fog  Heavy snow  Heavy precipitations  Wind > 20 kt
SIGMETs :     Misc.  Thunderstorms  Icing  Turbulence  Mountain Waves  Volcanic Ashes






- Airport Elevation : 313 ft


LFQA - Reims-Prunay

CURRENT METAR :
  • 142130Z AUTO 02004KT 9999 -RA OVC030 05/04 Q1000

EXPIRED METARs :
  • 142100Z AUTO 04003KT 9999 -RA OVC025 05/04 Q1000
  • 142030Z AUTO 06006KT 9999 -RA BKN021/// OVC027/// ///TCU 05/04 Q1000
  • 142000Z AUTO 08003KT 9999 -RA BKN019 OVC028 05/04 Q1000
  • 141930Z AUTO 07006KT 9999 -RA FEW029 BKN076 OVC096 05/04 Q1000
  • 141900Z AUTO 07006KT 9999 -RA FEW045 BKN052 OVC072 05/04 Q1000

TAF N/A



MET'MAP, your aeronautical weather chart ! - Copyright ORBIFLY December 2007 - Disclaimer

ORBIFLY MET'MAP TEAM :

Programming & Development : Alexandra Zaïnal
Concept & Development : Baudouin d'Aumeries
Co-Development & Prog : Marc-Olivier Méhu
Technical & hardware support : Manuel Goepfert

Contact : metmap@orbifly.com




SOURCES & CREDITS :

   NOAA